createdAt,value
2019-06-01T00:02:23.548Z,99.90
2019-06-01T00:04:55.111Z,99.90
2019-06-01T00:07:27.610Z,99.90
2019-06-01T00:09:59.223Z,99.90
2019-06-01T00:12:30.427Z,99.90
2019-06-01T00:15:01.652Z,99.90
2019-06-01T00:17:32.906Z,99.90
2019-06-01T00:20:05.292Z,99.90
2019-06-01T00:22:37.026Z,99.90
2019-06-01T00:25:08.482Z,99.90
2019-06-01T00:27:40.466Z,99.90
2019-06-01T00:30:26.225Z,99.90
2019-06-01T00:32:45.199Z,99.90
2019-06-01T00:35:16.938Z,99.90
2019-06-01T00:37:48.164Z,99.90
2019-06-01T00:40:19.344Z,99.90
2019-06-01T00:42:50.572Z,99.90
2019-06-01T00:45:22.099Z,99.90
2019-06-01T00:47:53.335Z,99.90
2019-06-01T00:50:24.583Z,99.90
2019-06-01T00:52:55.866Z,99.90
2019-06-01T00:55:27.032Z,99.90
2019-06-01T00:57:58.252Z,99.90
2019-06-01T01:00:42.947Z,99.90
2019-06-01T01:03:02.176Z,99.90
2019-06-01T01:05:34.768Z,99.90
2019-06-01T01:08:05.966Z,99.90
2019-06-01T01:10:37.153Z,99.90
2019-06-01T01:13:17.545Z,99.90
2019-06-01T01:15:49.289Z,99.90
2019-06-01T01:18:20.658Z,99.90
2019-06-01T01:20:52.067Z,99.90
2019-06-01T01:23:23.335Z,99.90
2019-06-01T01:25:54.616Z,99.90
2019-06-01T01:28:25.849Z,99.90
2019-06-01T01:31:06.609Z,99.90
2019-06-01T01:33:29.826Z,99.90
2019-06-01T01:36:01.084Z,99.90
2019-06-01T01:38:32.359Z,99.90
2019-06-01T01:41:03.486Z,99.90
2019-06-01T01:43:34.658Z,99.90
2019-06-01T01:46:06.133Z,99.90
2019-06-01T01:48:37.368Z,99.90
2019-06-01T01:51:08.645Z,99.90
2019-06-01T01:53:39.875Z,99.90
2019-06-01T01:56:11.015Z,99.90
2019-06-01T01:58:42.271Z,99.90
2019-06-01T02:01:22.076Z,99.90
2019-06-01T02:03:46.265Z,99.90
2019-06-01T02:06:18.598Z,99.90
2019-06-01T02:08:50.960Z,99.90
2019-06-01T02:11:22.310Z,99.90
2019-06-01T02:13:53.657Z,99.90
2019-06-01T02:16:25.071Z,99.90
2019-06-01T02:18:57.536Z,99.90
2019-06-01T02:21:29.020Z,99.90
2019-06-01T02:24:01.244Z,99.90
2019-06-01T02:26:33.678Z,99.90
2019-06-01T02:29:04.931Z,99.90
2019-06-01T02:31:41.849Z,99.90
2019-06-01T02:34:08.940Z,99.90
2019-06-01T02:36:40.116Z,99.90
2019-06-01T02:39:13.113Z,99.90
2019-06-01T02:41:44.282Z,99.90
2019-06-01T02:44:15.388Z,99.90
2019-06-01T02:46:46.587Z,99.90
2019-06-01T02:49:18.691Z,99.90
2019-06-01T02:51:49.936Z,99.90
2019-06-01T02:54:21.022Z,99.90
2019-06-01T02:56:52.128Z,99.90
2019-06-01T02:59:23.328Z,99.90
2019-06-01T03:01:58.168Z,99.90
2019-06-01T03:04:28.094Z,99.90
2019-06-01T03:07:03.775Z,99.90
2019-06-01T03:09:36.179Z,99.90
2019-06-01T03:12:09.031Z,99.90
2019-06-01T03:14:42.413Z,99.90
2019-06-01T03:17:15.341Z,99.90
2019-06-01T03:19:49.181Z,99.90
2019-06-01T03:22:22.657Z,99.90
2019-06-01T03:24:56.097Z,99.90
2019-06-01T03:27:30.400Z,99.90
2019-06-01T03:30:06.726Z,99.90
2019-06-01T03:32:37.796Z,99.90
2019-06-01T03:35:09.191Z,99.90
2019-06-01T03:37:40.359Z,99.90
2019-06-01T03:40:23.151Z,99.90
2019-06-01T03:42:44.537Z,99.90
2019-06-01T03:45:15.775Z,99.90
2019-06-01T03:47:46.966Z,99.90
2019-06-01T03:50:18.134Z,99.90
2019-06-01T03:52:49.282Z,99.90
2019-06-01T03:55:20.454Z,99.90
2019-06-01T03:57:51.763Z,99.90
2019-06-01T04:00:23.214Z,99.90
2019-06-01T04:02:54.460Z,99.90
2019-06-01T04:05:25.595Z,99.90
2019-06-01T04:07:56.867Z,99.90
2019-06-01T04:10:28.313Z,99.90
2019-06-01T04:12:59.475Z,99.90
2019-06-01T04:15:30.721Z,99.90
2019-06-01T04:18:01.974Z,99.90
2019-06-01T04:20:33.219Z,99.90
2019-06-01T04:23:04.616Z,99.90
2019-06-01T04:25:36.311Z,99.90
2019-06-01T04:28:12.720Z,99.90
2019-06-01T04:30:45.049Z,99.90
2019-06-01T04:33:16.233Z,99.90
2019-06-01T04:35:47.446Z,99.90
2019-06-01T04:38:18.610Z,99.90
2019-06-01T04:40:49.762Z,99.90
2019-06-01T04:43:20.962Z,99.90
2019-06-01T04:45:52.159Z,99.90
2019-06-01T04:48:23.434Z,99.90
2019-06-01T04:50:54.597Z,99.90
2019-06-01T04:53:25.858Z,99.90
2019-06-01T04:55:57.121Z,99.90
2019-06-01T04:58:28.392Z,99.90
2019-06-01T05:00:59.593Z,99.90
2019-06-01T05:03:30.843Z,99.90
2019-06-01T05:06:02.049Z,99.90
2019-06-01T05:08:33.179Z,99.90
2019-06-01T05:11:06.573Z,99.90
2019-06-01T05:13:37.243Z,99.90
2019-06-01T05:16:14.407Z,99.90
2019-06-01T05:18:45.371Z,99.90
2019-06-01T05:21:18.927Z,99.90
2019-06-01T05:23:52.826Z,99.90
2019-06-01T05:26:24.003Z,99.90
2019-06-01T05:28:55.252Z,99.90
2019-06-01T05:31:30.078Z,99.90
2019-06-01T05:34:01.576Z,99.90
2019-06-01T05:36:34.172Z,99.90
2019-06-01T05:39:08.249Z,99.90
2019-06-01T05:41:39.558Z,99.90
2019-06-01T05:44:10.814Z,99.90
2019-06-01T05:46:42.407Z,99.90
2019-06-01T05:49:14.738Z,99.90
2019-06-01T05:51:45.979Z,99.90
2019-06-01T05:54:17.254Z,99.90
2019-06-01T05:56:48.474Z,99.90
2019-06-01T05:59:19.747Z,99.90
2019-06-01T06:01:52.073Z,99.90
2019-06-01T06:04:23.225Z,99.90
2019-06-01T06:06:54.506Z,99.90
2019-06-01T06:09:25.643Z,99.90
2019-06-01T06:11:56.851Z,99.90
2019-06-01T06:14:28.069Z,99.90
2019-06-01T06:16:59.248Z,99.90
2019-06-01T06:19:30.512Z,99.90
2019-06-01T06:22:01.829Z,99.90
2019-06-01T06:24:33.051Z,99.90
2019-06-01T06:27:04.303Z,99.90
2019-06-01T06:29:35.519Z,99.90
2019-06-01T06:32:09.222Z,99.90
2019-06-01T06:34:39.582Z,99.90
2019-06-01T06:37:10.879Z,99.90
2019-06-01T06:39:42.358Z,99.90
2019-06-01T06:42:14.039Z,99.90
2019-06-01T06:44:45.461Z,99.90
2019-06-01T06:47:16.738Z,99.90
2019-06-01T06:49:48.070Z,99.90
2019-06-01T06:52:19.902Z,99.90
2019-06-01T06:54:51.253Z,99.90
2019-06-01T06:57:22.426Z,99.90
2019-06-01T06:59:53.749Z,99.90
2019-06-01T07:02:25.101Z,99.90
2019-06-01T07:04:56.342Z,99.90
2019-06-01T07:07:27.915Z,99.90
2019-06-01T07:09:59.138Z,99.90
2019-06-01T07:12:31.523Z,99.90
2019-06-01T07:15:02.873Z,99.90
2019-06-01T07:17:35.434Z,99.90
2019-06-01T07:20:07.067Z,99.90
2019-06-01T07:22:38.385Z,99.90
2019-06-01T07:25:09.679Z,99.90
2019-06-01T07:27:40.788Z,99.90
2019-06-01T07:30:11.961Z,99.90
2019-06-01T07:32:43.223Z,99.90
2019-06-01T07:35:14.657Z,99.90
2019-06-01T07:37:45.892Z,99.90
2019-06-01T07:40:18.893Z,99.90
2019-06-01T07:42:50.001Z,99.90
2019-06-01T07:45:22.781Z,99.90
2019-06-01T07:47:54.298Z,99.90
2019-06-01T07:50:25.997Z,99.90
2019-06-01T07:52:59.985Z,99.90
2019-06-01T07:55:31.727Z,99.90
2019-06-01T07:58:03.470Z,99.90
2019-06-01T08:00:34.667Z,99.90
2019-06-01T08:03:06.616Z,99.90
2019-06-01T08:05:38.972Z,99.90
2019-06-01T08:08:10.298Z,99.90
2019-06-01T08:10:41.456Z,99.90
2019-06-01T08:13:12.598Z,99.90
2019-06-01T08:15:43.887Z,99.90
2019-06-01T08:18:15.088Z,99.90
2019-06-01T08:20:46.602Z,99.90
2019-06-01T08:23:17.834Z,99.90
2019-06-01T08:25:49.034Z,99.90
2019-06-01T08:28:20.239Z,99.90
2019-06-01T08:30:54.122Z,99.90
2019-06-01T08:33:35.042Z,99.90
2019-06-01T08:36:14.819Z,99.90
2019-06-01T08:38:48.696Z,99.90
2019-06-01T08:41:20.161Z,99.90
2019-06-01T08:43:53.039Z,99.90
2019-06-01T08:46:25.498Z,99.90
2019-06-01T08:48:58.331Z,99.90
2019-06-01T08:51:29.994Z,99.90
2019-06-01T08:54:02.579Z,99.90
2019-06-01T08:56:34.842Z,99.90
2019-06-01T08:59:07.168Z,99.90
2019-06-01T09:01:38.993Z,99.90
2019-06-01T09:04:10.429Z,97.60
2019-06-01T09:06:42.296Z,99.90
2019-06-01T09:09:13.559Z,99.90
2019-06-01T09:11:44.801Z,99.90
2019-06-01T09:14:16.005Z,99.90
2019-06-01T09:16:47.256Z,99.90
2019-06-01T09:19:18.511Z,99.90
2019-06-01T09:21:49.696Z,99.90
2019-06-01T09:24:25.757Z,99.90
2019-06-01T09:26:58.191Z,99.90
2019-06-01T09:29:29.992Z,99.90
2019-06-01T09:32:01.620Z,99.90
2019-06-01T09:34:32.899Z,99.90
2019-06-01T09:37:05.199Z,99.90
2019-06-01T09:39:38.401Z,99.90
2019-06-01T09:42:10.813Z,99.90
2019-06-01T09:44:42.624Z,99.90
2019-06-01T09:47:14.872Z,98.80
2019-06-01T09:49:47.643Z,97.70
2019-06-01T09:52:20.407Z,91.60
2019-06-01T09:54:53.046Z,91.50
2019-06-01T09:57:24.970Z,91.20
2019-06-01T09:59:56.323Z,93.30
2019-06-01T10:02:28.072Z,96.10
2019-06-01T10:04:59.914Z,97.40
2019-06-01T10:07:32.841Z,99.90
2019-06-01T10:10:05.263Z,99.90
2019-06-01T10:12:39.411Z,99.90
2019-06-01T10:15:12.073Z,99.90
2019-06-01T10:17:44.334Z,99.90
2019-06-01T10:20:16.635Z,99.90
2019-06-01T10:22:49.787Z,99.90
2019-06-01T10:25:22.441Z,99.90
2019-06-01T10:27:54.435Z,99.90
2019-06-01T10:30:26.175Z,99.90
2019-06-01T10:32:58.564Z,99.90
2019-06-01T10:35:30.929Z,99.90
2019-06-01T10:38:02.937Z,99.90
2019-06-01T10:40:35.438Z,99.90
2019-06-01T10:43:07.177Z,99.90
2019-06-01T10:45:39.883Z,99.90
2019-06-01T10:48:11.941Z,99.90
2019-06-01T10:50:44.258Z,99.90
2019-06-01T10:53:15.522Z,99.90
2019-06-01T10:55:46.871Z,99.90
2019-06-01T10:58:18.087Z,99.90
2019-06-01T11:00:51.081Z,99.90
2019-06-01T11:03:22.244Z,99.90
2019-06-01T11:05:53.826Z,99.90
2019-06-01T11:08:24.953Z,99.90
2019-06-01T11:10:56.364Z,99.90
2019-06-01T11:13:28.071Z,99.90
2019-06-01T11:15:59.383Z,99.90
2019-06-01T11:18:30.774Z,99.90
2019-06-01T11:21:01.891Z,99.90
2019-06-01T11:23:33.289Z,99.90
2019-06-01T11:26:04.660Z,99.90
2019-06-01T11:28:36.244Z,99.90
2019-06-01T11:31:08.315Z,99.90
2019-06-01T11:33:40.150Z,99.90
2019-06-01T11:36:12.864Z,99.90
2019-06-01T11:38:44.864Z,99.90
2019-06-01T11:41:18.657Z,93.50
2019-06-01T11:43:51.417Z,92.40
2019-06-01T11:46:22.648Z,91.50
2019-06-01T11:48:53.933Z,91.30
2019-06-01T11:51:25.296Z,92.10
2019-06-01T11:53:56.511Z,91.90
2019-06-01T11:56:27.681Z,94.50
2019-06-01T11:58:58.985Z,94.30
2019-06-01T12:01:30.186Z,82.80
2019-06-01T12:04:01.437Z,79.70
2019-06-01T12:06:32.543Z,90.30
2019-06-01T12:09:05.457Z,85.80
2019-06-01T12:11:37.794Z,77.80
2019-06-01T12:14:09.105Z,76.70
2019-06-01T12:16:40.429Z,87.60
2019-06-01T12:19:11.615Z,78.60
2019-06-01T12:21:43.025Z,75.30
2019-06-01T12:24:14.242Z,70.20
2019-06-01T12:26:45.605Z,71.20
2019-06-01T12:29:16.981Z,67.00
2019-06-01T12:31:48.287Z,64.60
2019-06-01T12:34:19.470Z,69.80
2019-06-01T12:36:50.642Z,69.90
2019-06-01T12:39:21.786Z,70.60
2019-06-01T12:41:53.108Z,72.60
2019-06-01T12:44:24.438Z,69.30
2019-06-01T12:46:55.727Z,72.60
2019-06-01T12:49:27.323Z,76.40
2019-06-01T12:51:58.857Z,74.70
2019-06-01T12:54:30.092Z,76.10
2019-06-01T12:57:01.312Z,75.50
2019-06-01T12:59:32.518Z,68.00
2019-06-01T13:02:03.657Z,67.50
2019-06-01T13:04:35.019Z,68.10
2019-06-01T13:07:06.254Z,72.30
2019-06-01T13:09:37.464Z,69.30
2019-06-01T13:12:08.630Z,75.40
2019-06-01T13:14:41.079Z,72.50
2019-06-01T13:17:12.364Z,71.50
2019-06-01T13:19:43.595Z,73.70
2019-06-01T13:22:15.786Z,76.00
2019-06-01T13:24:47.924Z,72.80
2019-06-01T13:27:19.320Z,66.80
2019-06-01T13:29:52.270Z,64.90
2019-06-01T13:32:24.563Z,68.10
2019-06-01T13:34:55.757Z,71.30
2019-06-01T13:37:27.099Z,68.30
2019-06-01T13:39:58.493Z,68.50
2019-06-01T13:42:29.698Z,66.70
2019-06-01T13:45:01.022Z,64.60
2019-06-01T13:47:32.171Z,63.30
2019-06-01T13:50:06.485Z,64.90
2019-06-01T13:52:36.199Z,65.10
2019-06-01T13:55:08.054Z,60.60
2019-06-01T13:57:40.271Z,64.40
2019-06-01T14:00:15.584Z,67.10
2019-06-01T14:02:49.534Z,65.10
2019-06-01T14:05:18.617Z,66.30
2019-06-01T14:07:49.869Z,63.10
2019-06-01T14:10:21.172Z,63.20
2019-06-01T14:12:53.435Z,61.20
2019-06-01T14:15:24.735Z,62.10
2019-06-01T14:17:56.473Z,66.80
2019-06-01T14:20:27.829Z,66.30
2019-06-01T14:22:59.096Z,68.20
2019-06-01T14:25:30.313Z,72.10
2019-06-01T14:28:01.564Z,74.00
2019-06-01T14:30:33.067Z,74.30
2019-06-01T14:33:04.418Z,76.10
2019-06-01T14:35:36.081Z,80.30
2019-06-01T14:38:07.425Z,83.60
2019-06-01T14:40:41.359Z,85.20
2019-06-01T14:43:11.519Z,85.10
2019-06-01T14:45:42.715Z,90.30
2019-06-01T14:48:13.926Z,93.10
2019-06-01T14:50:45.076Z,90.40
2019-06-01T14:53:16.280Z,89.10
2019-06-01T14:55:49.689Z,89.80
2019-06-01T14:58:21.043Z,79.30
2019-06-01T15:00:52.646Z,82.60
2019-06-01T15:03:23.984Z,76.70
2019-06-01T15:05:56.422Z,77.10
2019-06-01T15:08:27.783Z,68.80
2019-06-01T15:10:58.973Z,71.60
2019-06-01T15:13:30.148Z,72.80
2019-06-01T15:16:02.015Z,68.60
2019-06-01T15:18:33.303Z,66.50
2019-06-01T15:21:04.522Z,67.30
2019-06-01T15:23:35.789Z,66.00
2019-06-01T15:26:07.138Z,63.00
2019-06-01T15:28:38.338Z,63.80
2019-06-01T15:31:09.987Z,63.60
2019-06-01T15:33:41.195Z,62.90
2019-06-01T15:36:12.385Z,62.80
2019-06-01T15:38:43.664Z,61.90
2019-06-01T15:41:14.958Z,61.50
2019-06-01T15:43:46.216Z,59.30
2019-06-01T15:46:17.409Z,62.00
2019-06-01T15:48:48.753Z,62.20
2019-06-01T15:51:20.708Z,60.30
2019-06-01T15:53:54.836Z,60.70
2019-06-01T15:56:26.367Z,58.30
2019-06-01T15:58:58.631Z,59.60
2019-06-01T16:01:30.602Z,59.50
2019-06-01T16:04:03.284Z,59.30
2019-06-01T16:06:34.659Z,61.60
2019-06-01T16:09:06.956Z,61.50
2019-06-01T16:11:38.598Z,59.80
2019-06-01T16:14:09.809Z,57.50
2019-06-01T16:16:41.072Z,60.20
2019-06-01T16:19:12.195Z,57.90
2019-06-01T16:21:43.444Z,60.20
2019-06-01T16:24:14.593Z,59.80
2019-06-01T16:26:45.982Z,59.00
2019-06-01T16:29:17.168Z,57.80
2019-06-01T16:31:48.452Z,57.30
2019-06-01T16:34:20.518Z,56.90
2019-06-01T16:36:51.732Z,56.80
2019-06-01T16:39:22.984Z,56.40
2019-06-01T16:41:55.456Z,56.70
2019-06-01T16:44:26.874Z,56.40
2019-06-01T16:46:58.126Z,57.20
2019-06-01T16:49:29.318Z,56.10
2019-06-01T16:52:01.429Z,57.50
2019-06-01T16:54:32.903Z,57.40
2019-06-01T16:57:05.369Z,56.40
2019-06-01T16:59:38.503Z,57.20
2019-06-01T17:02:09.697Z,58.80
2019-06-01T17:04:40.924Z,57.50
2019-06-01T17:07:12.493Z,57.20
2019-06-01T17:09:43.707Z,58.00
2019-06-01T17:12:14.986Z,58.60
2019-06-01T17:14:46.190Z,57.50
2019-06-01T17:17:17.531Z,58.20
2019-06-01T17:19:48.795Z,58.50
2019-06-01T17:22:20.135Z,60.00
2019-06-01T17:24:51.328Z,60.10
2019-06-01T17:27:22.629Z,61.10
2019-06-01T17:29:53.883Z,62.30
2019-06-01T17:32:25.055Z,62.10
2019-06-01T17:34:56.312Z,62.70
2019-06-01T17:37:27.536Z,61.40
2019-06-01T17:39:59.963Z,62.10
2019-06-01T17:42:31.273Z,63.10
2019-06-01T17:45:04.178Z,62.40
2019-06-01T17:47:35.505Z,63.80
2019-06-01T17:50:07.558Z,65.50
2019-06-01T17:52:38.905Z,65.50
2019-06-01T17:55:10.386Z,66.50
2019-06-01T17:57:41.643Z,66.20
2019-06-01T18:00:13.130Z,67.20
2019-06-01T18:02:44.545Z,68.20
2019-06-01T18:05:15.895Z,69.80
2019-06-01T18:07:47.073Z,73.20
2019-06-01T18:10:20.084Z,77.40
2019-06-01T18:12:51.491Z,81.90
2019-06-01T18:15:22.662Z,87.90
2019-06-01T18:17:53.849Z,91.70
2019-06-01T18:20:25.279Z,94.60
2019-06-01T18:22:56.583Z,97.90
2019-06-01T18:25:28.227Z,99.90
2019-06-01T18:27:59.748Z,99.90
2019-06-01T18:30:31.459Z,99.90
2019-06-01T18:33:03.056Z,99.90
2019-06-01T18:35:34.517Z,99.90
2019-06-01T18:38:05.984Z,99.90
2019-06-01T18:40:37.156Z,99.90
2019-06-01T18:43:14.131Z,99.90
2019-06-01T18:45:47.010Z,99.90
2019-06-01T18:48:19.770Z,99.90
2019-06-01T18:50:51.082Z,99.90
2019-06-01T18:53:22.176Z,99.90
2019-06-01T18:55:53.469Z,99.90
2019-06-01T18:58:24.704Z,99.90
2019-06-01T19:00:56.209Z,99.90
2019-06-01T19:03:27.483Z,99.90
2019-06-01T19:05:58.614Z,99.90
2019-06-01T19:08:29.841Z,99.90
2019-06-01T19:11:01.231Z,99.90
2019-06-01T19:13:32.447Z,99.90
2019-06-01T19:16:03.732Z,99.90
2019-06-01T19:18:34.984Z,99.90
2019-06-01T19:21:06.475Z,99.90
2019-06-01T19:23:37.784Z,99.90
2019-06-01T19:26:11.625Z,99.90
2019-06-01T19:28:41.958Z,99.90
2019-06-01T19:31:13.395Z,99.90
2019-06-01T19:33:45.106Z,99.90
2019-06-01T19:36:17.143Z,99.90
2019-06-01T19:38:49.127Z,99.90
2019-06-01T19:41:20.436Z,99.90
2019-06-01T19:43:51.794Z,99.90
2019-06-01T19:46:24.274Z,99.90
2019-06-01T19:48:59.009Z,99.90
2019-06-01T19:51:32.246Z,99.90
2019-06-01T19:54:03.557Z,99.90
2019-06-01T19:56:35.812Z,99.90
2019-06-01T19:59:07.086Z,99.90
2019-06-01T20:01:38.516Z,99.90
2019-06-01T20:04:10.426Z,99.90
2019-06-01T20:06:41.892Z,99.90
2019-06-01T20:09:13.208Z,99.90
2019-06-01T20:11:58.637Z,99.90
2019-06-01T20:14:19.034Z,99.90
2019-06-01T20:16:50.331Z,99.90
2019-06-01T20:19:21.881Z,99.90
2019-06-01T20:21:53.112Z,99.90
2019-06-01T20:24:24.423Z,99.90
2019-06-01T20:26:57.124Z,99.90
2019-06-01T20:29:28.343Z,99.90
2019-06-01T20:32:00.736Z,99.90
2019-06-01T20:34:31.969Z,99.90
2019-06-01T20:37:03.322Z,99.90
2019-06-01T20:39:34.567Z,99.90
2019-06-01T20:42:20.765Z,99.90
2019-06-01T20:44:38.850Z,99.90
2019-06-01T20:47:10.178Z,99.90
2019-06-01T20:49:42.008Z,99.90
2019-06-01T20:52:13.228Z,99.90
2019-06-01T20:54:44.522Z,99.90
2019-06-01T20:57:15.752Z,99.90
2019-06-01T20:59:47.110Z,99.90
2019-06-01T21:02:19.762Z,99.90
2019-06-01T21:04:52.278Z,99.90
2019-06-01T21:07:24.625Z,99.90
2019-06-01T21:09:55.831Z,99.90
2019-06-01T21:12:44.388Z,99.90
2019-06-01T21:15:00.487Z,99.90
2019-06-01T21:17:31.827Z,99.90
2019-06-01T21:20:04.679Z,99.90
2019-06-01T21:22:36.315Z,99.90
2019-06-01T21:25:08.853Z,99.90
2019-06-01T21:27:40.267Z,99.90
2019-06-01T21:30:12.595Z,99.90
2019-06-01T21:32:43.885Z,99.90
2019-06-01T21:35:17.123Z,99.90
2019-06-01T21:37:49.031Z,99.90
2019-06-01T21:40:21.496Z,99.90
2019-06-01T21:43:06.834Z,99.90
2019-06-01T21:45:26.488Z,99.90
2019-06-01T21:47:57.835Z,99.90
2019-06-01T21:50:31.580Z,99.90
2019-06-01T21:53:09.047Z,99.90
2019-06-01T21:55:46.345Z,99.90
2019-06-01T21:58:18.885Z,99.90
2019-06-01T22:00:55.113Z,99.90
2019-06-01T22:03:27.277Z,99.90
2019-06-01T22:05:58.988Z,99.90
2019-06-01T22:08:30.334Z,99.90
2019-06-01T22:11:01.723Z,99.90
2019-06-01T22:13:33.187Z,99.90
2019-06-01T22:16:04.530Z,99.90
2019-06-01T22:18:35.876Z,99.90
2019-06-01T22:21:07.378Z,99.90
2019-06-01T22:23:38.572Z,99.90
2019-06-01T22:26:09.902Z,99.90
2019-06-01T22:28:41.332Z,99.90
2019-06-01T22:31:12.556Z,99.90
2019-06-01T22:33:43.914Z,99.90
2019-06-01T22:36:15.247Z,99.90
2019-06-01T22:38:46.517Z,99.90
2019-06-01T22:41:17.817Z,99.90
2019-06-01T22:43:49.286Z,99.90
2019-06-01T22:46:20.555Z,99.90
2019-06-01T22:48:51.966Z,99.90
2019-06-01T22:51:23.341Z,99.90
2019-06-01T22:53:54.641Z,99.90
2019-06-01T22:56:27.259Z,99.90
2019-06-01T22:58:58.703Z,99.90
2019-06-01T23:01:29.975Z,99.90
2019-06-01T23:04:01.251Z,99.90
2019-06-01T23:06:32.519Z,99.90
2019-06-01T23:09:04.677Z,99.90
2019-06-01T23:11:36.052Z,99.90
2019-06-01T23:14:07.546Z,99.90
2019-06-01T23:16:38.836Z,99.90
2019-06-01T23:19:10.012Z,99.90
2019-06-01T23:21:41.342Z,99.90
2019-06-01T23:24:12.440Z,99.90
2019-06-01T23:26:43.763Z,99.90
2019-06-01T23:29:15.379Z,99.90
2019-06-01T23:31:46.614Z,99.90
2019-06-01T23:34:18.286Z,99.90
2019-06-01T23:36:49.484Z,99.90
2019-06-01T23:39:20.816Z,99.90
2019-06-01T23:41:51.944Z,99.90
2019-06-01T23:44:23.273Z,99.90
2019-06-01T23:46:54.439Z,99.90
2019-06-01T23:49:25.661Z,99.90
2019-06-01T23:51:56.837Z,99.90
2019-06-01T23:54:28.024Z,99.90
2019-06-01T23:56:59.244Z,99.90
2019-06-01T23:59:30.911Z,99.90
